Time;durP1;ratioP1;P1;durP2;ratioP2;P2;SDS_P1;SDS_P2;PMS_P1;PMS_P2;Temp;Humidity;BMP_temperature;BMP_pressure;BME280_temperature;BME280_humidity;BME280_pressure;Samples;Min_cycle;Max_cycle;Signal;HPM_P1;HPM_P2
2023/01/04 00:01:07;;;;;;;9.77;2.00;;;9.10;99.90;;;;;;4825840;29;20098;-75
2023/01/04 00:03:33;;;;;;;2.10;1.88;;;9.10;99.90;;;;;;4832275;29;20503;-75
2023/01/04 00:06:02;;;;;;;3.22;2.22;;;9.00;99.90;;;;;;4829269;29;20085;-75
2023/01/04 00:08:28;;;;;;;5.32;1.85;;;9.00;99.90;;;;;;4825994;29;20472;-76
2023/01/04 00:11:04;;;;;;;4.68;1.85;;;8.90;99.90;;;;;;4819005;29;20069;-77
2023/01/04 00:13:30;;;;;;;6.25;2.15;;;8.90;99.90;;;;;;4813097;29;20038;-76
2023/01/04 00:15:57;;;;;;;1.08;0.95;;;8.90;99.90;;;;;;4815745;29;20038;-77
2023/01/04 00:18:23;;;;;;;3.15;1.92;;;8.80;99.90;;;;;;4828612;29;20061;-77
2023/01/04 00:20:48;;;;;;;1.75;1.40;;;8.80;99.90;;;;;;4828903;29;20043;-77
2023/01/04 00:23:14;;;;;;;7.70;2.50;;;8.80;99.90;;;;;;4827303;29;20082;-77
2023/01/04 00:25:40;;;;;;;2.83;1.58;;;8.80;99.90;;;;;;4826119;29;20106;-76
2023/01/04 00:28:06;;;;;;;6.15;1.75;;;8.80;99.90;;;;;;4802619;29;20042;-77
2023/01/04 00:30:32;;;;;;;1.80;1.65;;;8.80;99.90;;;;;;4806749;29;20106;-77
2023/01/04 00:32:58;;;;;;;2.85;1.13;;;8.70;99.90;;;;;;4824692;29;20050;-77
2023/01/04 00:35:25;;;;;;;5.80;2.63;;;8.70;99.90;;;;;;4824582;29;20034;-77
2023/01/04 00:37:51;;;;;;;2.17;1.90;;;8.70;99.90;;;;;;4808712;29;20035;-77
2023/01/04 00:40:17;;;;;;;7.10;2.50;;;8.70;99.90;;;;;;4828139;29;20049;-77
2023/01/04 00:42:42;;;;;;;3.30;2.22;;;8.70;99.90;;;;;;4824643;29;20102;-77
2023/01/04 00:45:09;;;;;;;6.50;2.65;;;8.70;99.90;;;;;;4793170;29;20038;-77
2023/01/04 00:47:34;;;;;;;2.17;1.55;;;8.70;99.90;;;;;;4841355;29;20061;-77
2023/01/04 00:50:01;;;;;;;5.07;2.05;;;8.70;99.90;;;;;;4826243;29;20030;-77
2023/01/04 00:52:26;;;;;;;4.07;1.48;;;8.70;99.90;;;;;;4842526;29;20507;-77
2023/01/04 00:54:52;;;;;;;2.85;1.55;;;8.70;99.90;;;;;;4833053;29;20031;-77
2023/01/04 00:57:18;;;;;;;3.60;1.50;;;8.70;99.90;;;;;;4808016;29;20071;-76
2023/01/04 00:59:44;;;;;;;7.85;2.42;;;8.80;99.90;;;;;;4824551;29;20034;-77
2023/01/04 01:02:10;;;;;;;2.40;2.15;;;8.80;99.90;;;;;;4805690;29;20046;-77
2023/01/04 01:04:35;;;;;;;6.43;2.00;;;8.80;99.90;;;;;;4842482;29;20038;-76
2023/01/04 01:07:01;;;;;;;4.13;1.88;;;8.80;99.90;;;;;;4842361;29;20032;-77
2023/01/04 01:09:27;;;;;;;5.22;2.63;;;8.80;99.90;;;;;;4825226;29;20047;-77
2023/01/04 01:11:53;;;;;;;6.90;2.42;;;8.80;99.90;;;;;;4828061;29;20136;-77
2023/01/04 01:14:23;;;;;;;7.15;1.95;;;8.80;99.90;;;;;;4838396;29;20062;-77
2023/01/04 01:16:49;;;;;;;5.28;1.98;;;8.80;99.90;;;;;;4824159;29;20035;-77
2023/01/04 01:19:15;;;;;;;5.95;1.88;;;8.80;99.90;;;;;;4824878;29;20045;-78
2023/01/04 01:21:41;;;;;;;1.35;1.23;;;8.80;99.90;;;;;;4842724;29;20458;-77
2023/01/04 01:24:14;;;;;;;7.68;1.75;;;8.80;99.90;;;;;;4830098;29;20054;-77
2023/01/04 01:26:40;;;;;;;2.72;1.63;;;8.80;99.90;;;;;;4824736;29;20120;-77
2023/01/04 01:29:06;;;;;;;1.85;1.40;;;8.80;99.90;;;;;;4820017;29;20026;-77
2023/01/04 01:31:32;;;;;;;5.45;2.17;;;8.80;99.90;;;;;;4825464;29;20117;-77
2023/01/04 01:33:57;;;;;;;2.33;1.73;;;8.80;99.90;;;;;;4841095;29;20106;-78
2023/01/04 01:36:25;;;;;;;1.60;1.52;;;8.80;99.90;;;;;;4823999;29;20035;-77
2023/01/04 01:38:51;;;;;;;4.28;1.85;;;8.80;99.90;;;;;;4823713;29;20038;-77
2023/01/04 01:41:21;;;;;;;1.45;1.35;;;8.80;99.90;;;;;;4805602;29;20053;-77
2023/01/04 01:43:57;;;;;;;1.40;1.27;;;8.80;99.90;;;;;;4820818;29;20039;-77
2023/01/04 01:46:35;;;;;;;1.85;1.70;;;8.80;99.90;;;;;;4804585;29;20047;-77
2023/01/04 01:49:24;;;;;;;2.55;1.42;;;8.90;99.90;;;;;;4820740;29;20042;-77
2023/01/04 01:51:53;;;;;;;4.60;2.08;;;8.80;99.90;;;;;;4819673;29;20472;-77
2023/01/04 01:54:34;;;;;;;3.00;1.52;;;8.90;99.90;;;;;;4823571;29;20026;-77
2023/01/04 01:57:04;;;;;;;1.60;1.50;;;8.90;99.90;;;;;;4834812;29;20031;-77
2023/01/04 01:59:33;;;;;;;2.65;0.90;;;8.90;99.90;;;;;;4822801;29;20038;-77
2023/01/04 02:01:59;;;;;;;4.95;1.10;;;8.90;99.90;;;;;;4838345;29;20145;-77
2023/01/04 02:04:24;;;;;;;2.22;1.73;;;9.00;99.90;;;;;;4797163;29;20034;-77
2023/01/04 02:06:55;;;;;;;1.58;1.48;;;9.00;99.90;;;;;;4820584;29;20031;-77
2023/01/04 02:09:22;;;;;;;3.92;1.10;;;9.00;99.90;;;;;;4820148;29;20047;-77
2023/01/04 02:11:48;;;;;;;1.27;1.17;;;9.00;99.90;;;;;;4804126;29;20117;-77
2023/01/04 02:14:26;;;;;;;2.72;1.35;;;9.00;99.90;;;;;;4814394;29;20038;-77
2023/01/04 02:17:06;;;;;;;1.52;1.13;;;9.00;99.90;;;;;;4821833;29;20035;-77
2023/01/04 02:19:38;;;;;;;1.75;1.17;;;9.10;99.90;;;;;;4820644;29;20031;-77
2023/01/04 02:22:37;;;;;;;4.55;1.15;;;9.10;99.90;;;;;;4804032;29;20031;-77
2023/01/04 02:25:09;;;;;;;0.53;0.53;;;9.10;99.90;;;;;;4818612;29;20067;-77
2023/01/04 02:27:49;;;;;;;0.63;0.50;;;9.20;99.90;;;;;;4838389;29;20039;-77
2023/01/04 02:30:49;;;;;;;1.48;1.33;;;9.20;99.90;;;;;;4824737;29;20034;-77
2023/01/04 02:33:27;;;;;;;0.95;0.60;;;9.30;99.90;;;;;;4838170;29;20117;-77
2023/01/04 02:36:13;;;;;;;0.73;0.73;;;9.30;99.90;;;;;;4821973;29;20038;-77
2023/01/04 02:39:19;;;;;;;0.70;0.70;;;9.30;99.90;;;;;;4827270;29;20053;-77
2023/01/04 02:42:13;;;;;;;1.27;1.15;;;9.40;99.90;;;;;;4820827;29;20038;-77
2023/01/04 02:44:56;;;;;;;2.35;1.35;;;9.40;99.90;;;;;;4820338;29;20049;-77
2023/01/04 02:50:48;;;;;;;0.47;0.38;;;9.40;99.90;;;;;;4822097;29;20039;-76
2023/01/04 02:53:19;;;;;;;0.65;0.60;;;9.40;99.90;;;;;;4820216;29;20031;-77
2023/01/04 02:56:16;;;;;;;1.17;1.17;;;9.50;99.90;;;;;;4817440;29;20063;-75
2023/01/04 02:58:48;;;;;;;0.60;0.60;;;9.40;99.90;;;;;;4820185;29;20038;-77
2023/01/04 03:07:20;;;;;;;1.08;0.75;;;9.40;99.90;;;;;;4838046;29;20035;-77
2023/01/04 03:09:51;;;;;;;0.50;0.50;;;9.40;99.90;;;;;;4803941;29;20047;-77
2023/01/04 03:12:31;;;;;;;1.88;1.38;;;9.40;99.90;;;;;;4819480;29;20051;-77
2023/01/04 03:15:21;;;;;;;0.32;0.32;;;9.40;99.90;;;;;;4819270;29;20060;-77
2023/01/04 03:18:11;;;;;;;1.65;1.13;;;9.40;99.90;;;;;;4816477;29;20050;-77
2023/01/04 03:20:37;;;;;;;0.50;0.50;;;9.40;99.90;;;;;;4837264;29;20042;-77
2023/01/04 03:43:08;;;;;;;0.73;0.70;;;9.40;99.90;;;;;;4820834;29;20132;-77
2023/01/04 03:49:46;;;;;;;0.80;0.80;;;9.50;99.90;;;;;;4818995;29;20389;-76
2023/01/04 03:52:14;;;;;;;0.95;0.95;;;9.50;99.90;;;;;;4818735;29;20027;-77
2023/01/04 03:54:48;;;;;;;0.70;0.70;;;9.50;99.90;;;;;;4823089;29;20030;-77
2023/01/04 03:57:15;;;;;;;0.47;0.43;;;9.40;99.90;;;;;;4837001;29;20035;-77
2023/01/04 03:59:48;;;;;;;0.60;0.60;;;9.40;99.90;;;;;;4837339;29;20507;-77
2023/01/04 04:02:17;;;;;;;0.28;0.28;;;9.40;99.90;;;;;;4817877;29;20039;-77
2023/01/04 04:10:14;;;;;;;2.45;0.93;;;9.40;99.90;;;;;;4843104;29;20102;-77
2023/01/04 04:12:39;;;;;;;0.73;0.73;;;9.40;99.90;;;;;;4820493;29;20042;-77
2023/01/04 04:15:06;;;;;;;0.85;0.85;;;9.40;99.90;;;;;;4816964;29;20058;-77
2023/01/04 04:17:31;;;;;;;1.00;0.88;;;9.40;99.90;;;;;;4811001;29;20049;-77
2023/01/04 04:19:57;;;;;;;0.80;0.70;;;9.50;99.90;;;;;;4820328;29;20034;-77
2023/01/04 04:22:23;;;;;;;1.15;1.15;;;9.50;99.90;;;;;;4818431;29;20042;-77
2023/01/04 04:24:49;;;;;;;1.05;0.98;;;9.50;99.90;;;;;;4826488;29;20044;-77
2023/01/04 04:27:15;;;;;;;0.65;0.65;;;9.50;99.90;;;;;;4830651;29;20027;-77
2023/01/04 04:29:40;;;;;;;1.48;1.15;;;9.50;99.90;;;;;;4818048;29;20091;-77
2023/01/04 04:32:06;;;;;;;2.35;0.93;;;9.50;99.90;;;;;;4818251;29;20034;-77
2023/01/04 04:34:33;;;;;;;2.67;1.70;;;9.50;99.90;;;;;;4802186;29;20108;-77
2023/01/04 04:36:59;;;;;;;1.50;1.38;;;9.50;99.90;;;;;;4802782;29;20041;-77
2023/01/04 04:39:24;;;;;;;2.42;1.65;;;9.60;99.90;;;;;;4835763;29;20066;-77
2023/01/04 04:41:50;;;;;;;1.08;0.98;;;9.60;99.90;;;;;;4803844;29;20039;-77
2023/01/04 04:44:18;;;;;;;1.08;1.08;;;9.70;99.90;;;;;;4801863;29;20031;-77
2023/01/04 04:46:45;;;;;;;1.55;1.45;;;9.70;99.90;;;;;;4807226;29;20098;-77
2023/01/04 04:49:12;;;;;;;0.88;0.88;;;9.70;99.90;;;;;;4801786;29;20472;-77
2023/01/04 04:51:39;;;;;;;1.45;1.35;;;9.60;99.90;;;;;;4818138;29;20023;-77
2023/01/04 04:54:07;;;;;;;3.80;1.58;;;9.70;99.90;;;;;;4787004;29;20038;-77
2023/01/04 04:56:35;;;;;;;1.98;1.25;;;9.70;99.90;;;;;;4819981;29;20035;-77
2023/01/04 04:59:01;;;;;;;1.27;1.17;;;9.70;99.90;;;;;;4819963;29;20039;-77
2023/01/04 05:01:27;;;;;;;1.38;1.27;;;9.80;99.90;;;;;;4807880;29;20089;-77
2023/01/04 05:03:53;;;;;;;3.42;1.50;;;9.80;99.90;;;;;;4805727;29;20485;-77
2023/01/04 05:06:19;;;;;;;1.00;1.00;;;9.80;99.90;;;;;;4819743;29;20026;-77
2023/01/04 05:08:45;;;;;;;1.42;1.33;;;9.80;99.90;;;;;;4802494;29;20039;-77
2023/01/04 05:11:12;;;;;;;1.73;1.20;;;9.80;99.90;;;;;;4816807;29;20066;-77
2023/01/04 05:13:37;;;;;;;1.40;1.30;;;9.90;99.90;;;;;;4812454;29;20042;-77
2023/01/04 05:16:05;;;;;;;0.82;0.82;;;9.90;99.90;;;;;;4819708;29;20045;-77
2023/01/04 05:18:31;;;;;;;1.30;1.20;;;9.90;99.90;;;;;;4825453;29;20038;-77
2023/01/04 05:20:57;;;;;;;4.53;1.88;;;9.90;99.90;;;;;;4814612;29;20080;-77
2023/01/04 05:23:23;;;;;;;1.30;1.20;;;10.00;99.90;;;;;;4838301;29;20049;-77
2023/01/04 05:26:03;;;;;;;4.05;1.38;;;10.00;99.90;;;;;;4839441;29;20045;-77
2023/01/04 05:28:28;;;;;;;1.77;1.67;;;10.00;99.90;;;;;;4834855;29;20362;-77
2023/01/04 05:30:54;;;;;;;1.40;1.30;;;10.10;99.90;;;;;;4825145;29;20340;-77
2023/01/04 05:33:23;;;;;;;1.42;1.33;;;10.10;99.90;;;;;;4837610;29;20122;-77
2023/01/04 05:35:50;;;;;;;1.90;1.80;;;10.10;99.90;;;;;;4821224;29;20065;-77
2023/01/04 05:38:17;;;;;;;1.65;1.52;;;10.10;99.90;;;;;;4791254;29;20059;-77
2023/01/04 05:40:43;;;;;;;3.75;2.03;;;10.10;99.90;;;;;;4821856;29;20033;-76
2023/01/04 05:43:09;;;;;;;6.45;1.63;;;10.10;99.90;;;;;;4804743;29;20039;-77
2023/01/04 05:45:35;;;;;;;2.15;1.73;;;10.10;99.90;;;;;;4789674;29;20050;-77
2023/01/04 05:48:01;;;;;;;4.03;1.73;;;10.20;99.90;;;;;;4814392;29;20019;-79
2023/01/04 05:50:27;;;;;;;1.80;1.70;;;10.20;99.90;;;;;;4808770;29;20031;-79
2023/01/04 05:52:53;;;;;;;3.33;1.90;;;10.20;99.90;;;;;;4825012;29;20038;-80
2023/01/04 05:55:20;;;;;;;1.92;1.83;;;10.20;99.90;;;;;;4827741;29;20027;-79
2023/01/04 05:57:45;;;;;;;2.45;1.50;;;10.30;99.90;;;;;;4792457;29;20045;-79
2023/01/04 06:00:13;;;;;;;4.72;2.58;;;10.30;99.90;;;;;;4810218;29;20066;-79
2023/01/04 06:02:39;;;;;;;1.38;1.27;;;10.30;99.90;;;;;;4810992;29;20033;-80
2023/01/04 06:05:06;;;;;;;2.15;1.63;;;10.40;99.90;;;;;;4809854;29;20038;-79
2023/01/04 06:07:32;;;;;;;1.48;1.38;;;10.40;99.90;;;;;;4825675;29;20101;-79
2023/01/04 06:09:58;;;;;;;1.45;1.30;;;10.40;99.90;;;;;;4809797;29;20083;-79
2023/01/04 06:12:25;;;;;;;1.45;1.35;;;10.40;99.90;;;;;;4792902;29;20054;-79
2023/01/04 06:14:51;;;;;;;1.92;1.83;;;10.40;99.90;;;;;;4824408;29;20038;-79
2023/01/04 06:17:19;;;;;;;1.27;1.23;;;10.30;99.90;;;;;;4825630;29;20030;-79
2023/01/04 06:19:45;;;;;;;1.63;1.52;;;10.40;99.90;;;;;;4817609;29;20049;-79
2023/01/04 06:22:11;;;;;;;1.33;1.20;;;10.50;99.90;;;;;;4807129;29;20042;-79
2023/01/04 06:24:37;;;;;;;6.10;1.92;;;10.50;99.90;;;;;;4840578;29;20069;-79
2023/01/04 06:27:06;;;;;;;1.33;1.23;;;10.50;99.90;;;;;;4810625;29;20038;-79
2023/01/04 06:29:32;;;;;;;1.42;1.33;;;10.50;99.90;;;;;;4823334;29;20030;-79
2023/01/04 06:31:58;;;;;;;1.63;1.00;;;10.50;99.90;;;;;;4825904;29;20039;-79
2023/01/04 06:34:25;;;;;;;1.33;1.27;;;10.40;99.90;;;;;;4821129;29;20042;-77
2023/01/04 06:36:51;;;;;;;1.58;1.48;;;10.40;99.90;;;;;;4823438;29;20068;-79
2023/01/04 06:39:17;;;;;;;2.05;1.65;;;10.40;99.90;;;;;;4808838;29;20126;-80
2023/01/04 06:41:43;;;;;;;1.75;1.65;;;10.40;99.90;;;;;;4824425;29;20042;-79
2023/01/04 06:44:09;;;;;;;1.25;1.25;;;10.50;99.90;;;;;;4824007;29;20090;-80
2023/01/04 06:46:35;;;;;;;2.22;1.25;;;10.50;99.90;;;;;;4813429;29;20026;-79
2023/01/04 06:49:01;;;;;;;2.67;2.20;;;10.50;99.90;;;;;;4820796;29;20038;-79
2023/01/04 06:51:27;;;;;;;3.30;2.10;;;10.60;99.90;;;;;;4837762;29;20473;-79
2023/01/04 06:53:53;;;;;;;6.45;2.10;;;;;;;;;;4805367;29;20038;-79
2023/01/04 06:56:19;;;;;;;1.15;1.15;;;10.60;99.90;;;;;;4803568;29;20072;-79
2023/01/04 06:58:45;;;;;;;1.98;1.88;;;10.60;99.90;;;;;;4819641;29;20035;-79
2023/01/04 07:01:11;;;;;;;2.67;2.22;;;10.60;99.90;;;;;;4807059;29;21978;-79
2023/01/04 07:03:37;;;;;;;5.35;2.15;;;10.70;99.90;;;;;;4820889;29;20039;-79
2023/01/04 07:06:05;;;;;;;2.20;1.15;;;10.80;99.90;;;;;;4813709;29;20095;-79
2023/01/04 07:08:31;;;;;;;2.20;2.10;;;10.80;99.90;;;;;;4804305;29;20163;-79
2023/01/04 07:10:57;;;;;;;1.52;1.20;;;10.80;99.90;;;;;;4831047;29;20058;-79
2023/01/04 07:13:23;;;;;;;2.92;1.90;;;10.80;99.90;;;;;;4807517;29;20058;-79
2023/01/04 07:15:50;;;;;;;2.08;1.98;;;10.80;99.90;;;;;;4822885;29;20046;-79
2023/01/04 07:18:16;;;;;;;2.63;2.17;;;10.90;99.90;;;;;;4818764;29;20117;-79
2023/01/04 07:20:43;;;;;;;4.88;3.58;;;10.80;99.90;;;;;;4807272;29;20474;-79
2023/01/04 07:23:09;;;;;;;4.63;4.20;;;10.90;99.90;;;;;;4801849;29;20062;-79
2023/01/04 07:25:37;;;;;;;9.45;3.15;;;10.90;99.90;;;;;;4820885;29;20121;-79
2023/01/04 07:28:04;;;;;;;24.30;16.17;;;10.80;99.90;;;;;;4803966;29;20030;-79
2023/01/04 07:30:30;;;;;;;3.42;3.10;;;10.80;99.90;;;;;;4830000;29;20045;-79
2023/01/04 07:32:56;;;;;;;4.25;1.75;;;10.80;99.90;;;;;;4829570;29;20070;-79
2023/01/04 07:35:23;;;;;;;2.85;2.63;;;10.80;99.90;;;;;;4818109;29;20034;-79
2023/01/04 07:37:49;;;;;;;1.13;1.02;;;10.80;99.90;;;;;;4816983;29;20034;-79
2023/01/04 07:40:15;;;;;;;2.42;1.15;;;10.80;99.90;;;;;;4815003;29;20035;-79
2023/01/04 07:42:41;;;;;;;1.58;1.48;;;10.90;99.90;;;;;;4818824;29;20034;-79
2023/01/04 07:45:10;;;;;;;5.50;1.73;;;10.90;99.90;;;;;;4820443;29;20034;-79
2023/01/04 07:47:36;;;;;;;3.67;1.37;;;;;;;;;;4826749;29;20034;-79
2023/01/04 07:50:03;;;;;;;2.08;1.98;;;10.90;99.90;;;;;;4802202;29;20038;-79
2023/01/04 07:52:29;;;;;;;0.98;0.70;;;11.00;99.90;;;;;;4802868;29;20030;-79
2023/01/04 07:54:55;;;;;;;1.85;1.75;;;10.90;99.90;;;;;;4803696;29;20114;-79
2023/01/04 07:57:21;;;;;;;6.05;1.55;;;10.90;99.90;;;;;;4819820;29;20102;-79
2023/01/04 07:59:47;;;;;;;8.27;2.53;;;10.90;99.90;;;;;;4800600;29;20104;-79
2023/01/04 08:02:13;;;;;;;2.22;2.00;;;10.90;99.90;;;;;;4815784;29;20034;-79
2023/01/04 08:04:39;;;;;;;3.00;2.47;;;10.90;99.90;;;;;;4807198;29;20038;-79
2023/01/04 08:07:05;;;;;;;4.30;2.55;;;10.90;99.90;;;;;;4804011;29;20035;-79
2023/01/04 08:09:31;;;;;;;2.00;1.90;;;10.90;99.90;;;;;;4821184;29;20054;-79
2023/01/04 08:11:57;;;;;;;1.98;1.85;;;10.90;99.90;;;;;;4802511;29;20027;-80
2023/01/04 08:14:23;;;;;;;2.78;1.67;;;10.90;99.90;;;;;;4798323;29;20045;-79
2023/01/04 08:16:48;;;;;;;1.20;1.17;;;10.90;99.90;;;;;;4822805;29;20094;-79
2023/01/04 08:19:17;;;;;;;4.70;4.30;;;10.90;99.90;;;;;;4812733;29;20034;-79
2023/01/04 08:21:44;;;;;;;8.15;5.82;;;11.00;99.90;;;;;;4818286;29;20034;-79
2023/01/04 08:24:16;;;;;;;4.90;4.47;;;11.00;99.90;;;;;;4817847;29;20034;-79
2023/01/04 08:26:42;;;;;;;3.50;2.92;;;11.00;99.90;;;;;;4821383;29;20041;-79
2023/01/04 08:29:09;;;;;;;4.05;1.77;;;11.00;99.90;;;;;;4806305;29;20456;-79
2023/01/04 08:31:35;;;;;;;4.63;2.47;;;11.10;99.90;;;;;;4816726;29;20035;-79
2023/01/04 08:34:03;;;;;;;2.13;1.73;;;11.10;99.90;;;;;;4804314;29;20038;-78
2023/01/04 08:36:31;;;;;;;2.50;1.73;;;11.10;99.90;;;;;;4791033;29;20035;-79
2023/01/04 08:39:03;;;;;;;1.02;0.93;;;11.20;99.90;;;;;;4821071;29;20042;-79
2023/01/04 08:41:31;;;;;;;2.85;1.88;;;11.30;99.90;;;;;;4808823;29;20054;-79
2023/01/04 08:43:57;;;;;;;2.65;1.85;;;11.30;99.90;;;;;;4817263;29;20035;-79
2023/01/04 08:46:23;;;;;;;2.78;1.15;;;11.40;99.90;;;;;;4822807;29;20098;-78
2023/01/04 08:48:51;;;;;;;1.73;1.23;;;11.40;99.90;;;;;;4819679;29;20113;-79
2023/01/04 08:51:17;;;;;;;1.92;1.77;;;11.40;99.90;;;;;;4797386;29;20055;-79
2023/01/04 08:53:43;;;;;;;2.28;1.05;;;11.40;99.90;;;;;;4822459;29;20034;-79
2023/01/04 08:56:10;;;;;;;2.20;1.13;;;11.50;99.90;;;;;;4838087;29;20027;-78
2023/01/04 08:58:37;;;;;;;5.05;0.95;;;11.50;99.90;;;;;;4834729;29;20083;-77
2023/01/04 09:01:08;;;;;;;2.78;1.00;;;11.60;99.90;;;;;;4819674;29;20061;-77
2023/01/04 09:03:34;;;;;;;4.93;1.67;;;11.60;99.90;;;;;;4828409;29;20027;-77
2023/01/04 09:06:12;;;;;;;0.47;0.43;;;11.50;99.90;;;;;;4837037;29;20083;-77
2023/01/04 09:08:39;;;;;;;1.95;1.75;;;11.50;99.90;;;;;;4821577;29;20039;-77
2023/01/04 09:11:07;;;;;;;2.45;2.28;;;11.50;99.90;;;;;;4819015;29;20080;-77
2023/01/04 09:13:34;;;;;;;1.40;1.30;;;11.50;99.90;;;;;;4823012;29;20056;-77
2023/01/04 09:16:01;;;;;;;2.95;1.20;;;11.50;99.90;;;;;;4814640;29;20027;-77
2023/01/04 09:18:27;;;;;;;0.73;0.70;;;11.60;99.90;;;;;;4821918;29;20034;-77
2023/01/04 09:20:53;;;;;;;2.30;0.70;;;11.50;99.90;;;;;;4835590;29;20039;-77
2023/01/04 09:23:19;;;;;;;1.77;1.65;;;11.50;99.90;;;;;;4831619;29;20038;-77
2023/01/04 09:25:44;;;;;;;1.30;1.10;;;11.50;99.90;;;;;;4816754;29;20109;-77
2023/01/04 09:28:10;;;;;;;1.67;0.90;;;11.50;99.90;;;;;;4809627;29;20035;-77
2023/01/04 09:30:36;;;;;;;3.15;0.80;;;11.50;99.90;;;;;;4829873;29;20089;-77
2023/01/04 09:33:02;;;;;;;0.75;0.75;;;11.50;99.90;;;;;;4820265;29;20015;-77
2023/01/04 09:35:28;;;;;;;1.58;1.48;;;11.50;99.90;;;;;;4815688;29;20047;-77
2023/01/04 09:37:54;;;;;;;1.08;1.08;;;11.50;99.90;;;;;;4825158;29;20038;-77
2023/01/04 09:40:28;;;;;;;2.38;0.80;;;11.40;99.90;;;;;;4819797;29;20110;-77
2023/01/04 09:42:55;;;;;;;0.73;0.73;;;11.40;99.90;;;;;;4808020;29;20031;-77
2023/01/04 09:45:25;;;;;;;2.05;1.75;;;11.40;99.90;;;;;;4816582;29;20417;-77
2023/01/04 09:48:05;;;;;;;1.92;1.83;;;11.40;99.90;;;;;;4821976;29;20039;-77
2023/01/04 09:50:44;;;;;;;2.47;0.88;;;11.40;99.90;;;;;;4837139;29;20091;-77
2023/01/04 09:53:20;;;;;;;1.73;1.65;;;11.40;99.90;;;;;;4819277;29;20045;-77
2023/01/04 09:55:49;;;;;;;0.77;0.77;;;11.40;99.90;;;;;;4805353;29;20039;-77
2023/01/04 09:58:35;;;;;;;2.75;1.15;;;11.40;99.90;;;;;;4807327;29;20041;-78
2023/01/04 10:01:22;;;;;;;3.15;1.95;;;11.40;99.90;;;;;;4807924;29;20031;-76
2023/01/04 10:04:00;;;;;;;2.53;2.15;;;11.50;99.90;;;;;;4833231;29;20034;-77
2023/01/04 10:06:33;;;;;;;4.13;1.48;;;11.50;99.90;;;;;;4807278;29;20039;-77
2023/01/04 10:09:03;;;;;;;2.35;1.13;;;11.30;99.90;;;;;;4804634;29;20031;-77
2023/01/04 10:12:00;;;;;;;9.25;4.68;;;11.50;99.90;;;;;;4806030;29;20050;-77
2023/01/04 10:14:53;;;;;;;29.88;19.02;;;11.50;99.90;;;;;;4817567;29;20054;-77
2023/01/04 10:17:49;;;;;;;7.68;4.28;;;11.50;99.90;;;;;;4802466;29;20035;-78
2023/01/04 10:20:42;;;;;;;7.25;3.22;;;11.50;99.90;;;;;;4798986;30;20031;-78
2023/01/04 10:23:18;;;;;;;7.45;5.72;;;11.60;99.90;;;;;;4808568;29;20094;-77
2023/01/04 10:26:04;;;;;;;8.90;6.30;;;11.60;99.90;;;;;;4818791;29;20061;-78
2023/01/04 10:29:03;;;;;;;20.23;13.20;;;11.60;99.90;;;;;;4790720;30;20097;-77
2023/01/04 10:31:43;;;;;;;10.18;7.95;;;11.60;99.90;;;;;;4802071;30;20047;-77
2023/01/04 10:34:23;;;;;;;16.65;10.82;;;11.60;99.90;;;;;;4786184;30;20039;-78
2023/01/04 10:36:55;;;;;;;11.25;8.48;;;11.60;99.90;;;;;;4785801;30;20039;-78
2023/01/04 10:39:25;;;;;;;7.80;4.40;;;11.60;99.90;;;;;;4800832;29;20037;-78
2023/01/04 10:42:09;;;;;;;51.30;33.58;;;11.60;99.90;;;;;;4802874;29;20037;-78
2023/01/04 10:45:02;;;;;;;11.35;6.25;;;11.60;99.90;;;;;;4806120;29;20095;-77
2023/01/04 10:47:51;;;;;;;20.08;13.02;;;11.60;99.90;;;;;;4786639;29;20031;-78
2023/01/04 10:50:26;;;;;;;23.80;12.88;;;11.70;99.90;;;;;;4808164;29;20118;-78
2023/01/04 10:53:04;;;;;;;22.30;15.55;;;11.60;99.90;;;;;;4802483;29;20031;-78
2023/01/04 10:56:04;;;;;;;11.68;9.85;;;11.70;99.90;;;;;;4785419;30;20097;-78
2023/01/04 10:58:36;;;;;;;11.05;6.50;;;11.70;99.90;;;;;;4807194;29;20088;-78
2023/01/04 11:01:09;;;;;;;31.02;18.67;;;11.70;99.90;;;;;;4802956;29;20035;-77
2023/01/04 11:03:45;;;;;;;18.85;10.82;;;11.70;99.90;;;;;;4819149;29;20034;-78
2023/01/04 11:06:21;;;;;;;20.98;13.50;;;11.70;99.90;;;;;;4801920;29;20065;-77
2023/01/04 11:08:56;;;;;;;17.25;10.68;;;11.40;99.90;;;;;;4806389;29;20492;-77
2023/01/04 11:11:46;;;;;;;57.40;44.95;;;11.80;99.90;;;;;;4820914;29;20058;-78
2023/01/04 11:14:14;;;;;;;10.82;9.38;;;11.90;99.90;;;;;;4816177;29;20050;-78
2023/01/04 11:16:44;;;;;;;10.20;6.90;;;11.90;99.90;;;;;;4821107;29;20037;-77
2023/01/04 11:19:10;;;;;;;21.90;11.07;;;11.90;99.90;;;;;;4818041;29;20035;-78
2023/01/04 11:21:46;;;;;;;14.63;7.88;;;11.90;99.90;;;;;;4811675;29;20039;-78
2023/01/04 11:24:14;;;;;;;19.63;13.43;;;11.90;99.90;;;;;;4818070;29;20030;-78
2023/01/04 11:26:42;;;;;;;47.72;33.60;;;11.90;99.90;;;;;;4794065;29;20172;-78
2023/01/04 11:29:31;;;;;;;14.38;11.77;;;11.90;99.90;;;;;;4820799;29;20034;-78
2023/01/04 11:32:05;;;;;;;4.35;2.67;;;11.90;99.90;;;;;;4821277;29;20462;-78
2023/01/04 11:34:48;;;;;;;1.75;1.63;;;11.90;99.90;;;;;;4802509;29;20050;-78
2023/01/04 11:37:26;;;;;;;2.20;2.10;;;11.80;99.90;;;;;;4817864;29;20046;-75
2023/01/04 11:40:09;;;;;;;5.15;2.63;;;11.80;99.90;;;;;;4802740;29;20041;-78
2023/01/04 11:42:35;;;;;;;2.25;1.95;;;11.80;99.90;;;;;;4806622;29;20042;-76
2023/01/04 11:45:01;;;;;;;1.08;1.02;;;11.80;99.90;;;;;;4836794;29;20038;-75
2023/01/04 11:47:27;;;;;;;5.85;1.67;;;11.80;99.90;;;;;;4805353;29;20071;-78
2023/01/04 11:49:54;;;;;;;2.67;1.40;;;11.90;99.90;;;;;;4802215;29;20031;-78
2023/01/04 11:52:33;;;;;;;0.98;0.95;;;11.80;99.90;;;;;;4808451;29;20055;-76
2023/01/04 11:55:27;;;;;;;3.83;2.08;;;11.80;99.90;;;;;;4802554;29;20038;-76
2023/01/04 11:58:26;;;;;;;1.58;1.30;;;11.80;99.90;;;;;;4814606;29;20362;-75
2023/01/04 12:00:54;;;;;;;3.75;3.30;;;11.90;99.90;;;;;;4785430;29;20038;-78
2023/01/04 12:03:37;;;;;;;4.68;2.35;;;11.90;99.90;;;;;;4806324;29;20110;-75
2023/01/04 12:06:16;;;;;;;1.02;1.02;;;11.90;99.90;;;;;;4819789;29;20034;-76
2023/01/04 12:08:42;;;;;;;1.38;1.27;;;11.90;99.90;;;;;;4814596;29;20030;-76
2023/01/04 12:11:35;;;;;;;1.42;0.70;;;11.90;99.90;;;;;;4818304;29;20142;-76
2023/01/04 12:14:02;;;;;;;1.85;1.40;;;12.00;99.90;;;;;;4814394;29;20580;-77
2023/01/04 12:17:03;;;;;;;0.75;0.73;;;11.90;99.90;;;;;;4820357;29;20046;-77
2023/01/04 12:19:30;;;;;;;0.50;0.50;;;11.90;99.90;;;;;;4826160;29;20030;-77
2023/01/04 12:21:59;;;;;;;0.40;0.40;;;11.90;99.90;;;;;;4836349;29;20053;-77
2023/01/04 12:24:31;;;;;;;0.70;0.70;;;11.80;99.90;;;;;;4836963;29;20045;-77
2023/01/04 12:26:58;;;;;;;5.88;1.15;;;11.80;99.90;;;;;;4820323;29;20038;-77
2023/01/04 12:29:31;;;;;;;0.95;0.95;;;11.90;99.90;;;;;;4820817;29;20109;-78
2023/01/04 12:32:00;;;;;;;0.52;0.52;;;11.90;99.90;;;;;;4824809;29;20031;-77
2023/01/04 12:34:27;;;;;;;28.02;19.80;;;11.90;99.90;;;;;;4802339;29;20068;-77
2023/01/04 12:36:58;;;;;;;5.47;4.78;;;11.90;99.90;;;;;;4837377;29;20047;-77
2023/01/04 12:39:37;;;;;;;2.60;1.75;;;11.90;99.90;;;;;;4837670;29;20039;-78
2023/01/04 12:42:08;;;;;;;1.33;0.60;;;11.90;99.90;;;;;;4847215;29;20034;-77
2023/01/04 12:44:37;;;;;;;1.50;1.40;;;12.00;99.90;;;;;;4820163;29;20463;-78
2023/01/04 12:50:07;;;;;;;1.13;0.88;;;11.90;99.90;;;;;;4827419;29;20045;-78
2023/01/04 12:52:33;;;;;;;0.57;0.55;;;12.00;99.90;;;;;;4826024;29;20031;-77
2023/01/04 12:55:03;;;;;;;0.73;0.73;;;12.00;99.90;;;;;;4837897;29;20042;-77
2023/01/04 12:57:34;;;;;;;1.15;0.95;;;12.00;99.90;;;;;;4836468;29;20031;-77
2023/01/04 13:00:08;;;;;;;1.58;1.48;;;12.00;99.90;;;;;;4833912;29;20038;-80
2023/01/04 13:03:04;;;;;;;6.72;1.42;;;12.00;99.90;;;;;;4833246;29;20098;-77
2023/01/04 13:05:34;;;;;;;1.73;1.67;;;12.00;99.90;;;;;;4795939;29;20046;-78
2023/01/04 13:08:00;;;;;;;;;;;12.00;99.90;;;;;;4828596;29;20026;-77
2023/01/04 13:10:30;;;;;;;3.53;1.17;;;12.00;99.90;;;;;;4809455;29;19932;-78
2023/01/04 13:13:17;;;;;;;1.13;1.02;;;12.00;99.90;;;;;;4820525;29;20062;-77
2023/01/04 13:15:49;;;;;;;0.70;0.60;;;12.10;99.90;;;;;;4820548;29;20109;-79
2023/01/04 13:18:27;;;;;;;3.05;1.83;;;12.10;99.90;;;;;;4821127;29;20030;-80
2023/01/04 13:20:54;;;;;;;2.22;2.03;;;12.00;99.90;;;;;;4814914;29;20041;-77
2023/01/04 13:23:20;;;;;;;2.25;2.15;;;12.00;99.90;;;;;;4817334;29;20030;-79
2023/01/04 13:25:45;;;;;;;1.65;1.52;;;12.10;99.90;;;;;;4837161;29;20073;-79
2023/01/04 13:28:17;;;;;;;0.65;0.65;;;12.10;99.90;;;;;;4806912;29;20125;-79
2023/01/04 13:30:44;;;;;;;1.13;1.13;;;12.10;99.90;;;;;;4836594;29;20050;-77
2023/01/04 13:33:17;;;;;;;0.95;0.95;;;12.10;99.90;;;;;;4822660;29;20035;-79
2023/01/04 13:35:56;;;;;;;0.82;0.82;;;12.10;99.90;;;;;;4822529;29;20089;-77
2023/01/04 13:38:22;;;;;;;1.02;0.63;;;12.20;99.90;;;;;;4823843;29;20504;-79
2023/01/04 13:40:48;;;;;;;2.60;2.15;;;12.20;99.90;;;;;;4826858;29;20038;-79
2023/01/04 13:43:14;;;;;;;1.77;1.25;;;12.20;99.90;;;;;;4843016;29;20113;-79
2023/01/04 13:45:46;;;;;;;1.90;1.80;;;12.20;99.90;;;;;;4825773;29;20034;-77
2023/01/04 13:48:14;;;;;;;2.28;2.08;;;12.10;99.90;;;;;;4825623;29;20221;-78
2023/01/04 13:50:46;;;;;;;5.65;1.92;;;12.20;99.90;;;;;;4838245;29;20033;-77